createdAt,value
2017-07-19T00:01:52.854Z,101691.30
2017-07-19T00:04:21.973Z,101688.78
2017-07-19T00:06:50.675Z,101685.47
2017-07-19T00:09:19.006Z,101685.77
2017-07-19T00:11:47.344Z,101678.00
2017-07-19T00:14:16.198Z,101680.19
2017-07-19T00:16:44.552Z,101682.54
2017-07-19T00:19:13.646Z,101682.61
2017-07-19T00:21:42.305Z,101681.39
2017-07-19T00:24:10.672Z,101678.05
2017-07-19T00:26:39.059Z,101679.42
2017-07-19T00:29:07.703Z,101682.41
2017-07-19T00:31:36.051Z,101678.58
2017-07-19T00:34:04.387Z,101676.75
2017-07-19T00:36:33.156Z,101684.47
2017-07-19T00:39:01.496Z,101680.30
2017-07-19T00:41:29.841Z,101675.38
2017-07-19T00:43:58.485Z,101685.73
2017-07-19T00:46:27.588Z,101674.91
2017-07-19T00:48:55.958Z,101681.39
2017-07-19T00:51:24.587Z,101683.38
2017-07-19T00:53:52.917Z,101683.89
2017-07-19T00:56:21.262Z,101687.36
2017-07-19T00:58:49.948Z,101684.11
2017-07-19T01:01:18.309Z,101669.70
2017-07-19T01:03:46.665Z,101668.51
2017-07-19T01:06:15.285Z,101673.27
2017-07-19T01:08:43.690Z,101664.80
2017-07-19T01:11:12.029Z,101663.20
2017-07-19T01:13:40.721Z,101664.45
2017-07-19T01:16:09.068Z,101664.55
2017-07-19T01:18:37.402Z,101657.06
2017-07-19T01:21:06.622Z,101662.75
2017-07-19T01:23:34.970Z,101662.33
2017-07-19T01:26:03.325Z,101654.97
2017-07-19T01:28:31.970Z,101657.88
2017-07-19T01:31:01.080Z,101654.35
2017-07-19T01:33:29.422Z,101657.82
2017-07-19T01:35:58.048Z,101651.94
2017-07-19T01:38:26.398Z,101654.75
2017-07-19T01:40:54.734Z,101652.25
2017-07-19T01:43:23.644Z,101650.52
2017-07-19T01:45:52.001Z,101649.45
2017-07-19T01:48:20.339Z,101655.80
2017-07-19T01:50:49.287Z,101640.05
2017-07-19T01:53:17.642Z,101644.03
2017-07-19T01:55:45.985Z,101640.98
2017-07-19T01:58:14.600Z,101630.66
2017-07-19T02:00:42.952Z,101633.34
2017-07-19T02:03:11.304Z,101630.59
2017-07-19T02:05:40.186Z,101618.58
2017-07-19T02:08:08.527Z,101624.95
2017-07-19T02:10:36.880Z,101627.17
2017-07-19T02:13:05.518Z,101622.07
2017-07-19T02:15:33.856Z,101625.59
2017-07-19T02:18:02.198Z,101619.13
2017-07-19T02:20:31.012Z,101615.83
2017-07-19T02:22:59.367Z,101612.98
2017-07-19T02:25:27.691Z,101611.88
2017-07-19T02:27:56.655Z,101609.55
2017-07-19T02:30:25.010Z,101602.91
2017-07-19T02:32:53.352Z,101601.93
2017-07-19T02:35:22.024Z,101602.95
2017-07-19T02:37:50.368Z,101608.53
2017-07-19T02:40:18.694Z,101605.77
2017-07-19T02:42:47.356Z,101607.74
2017-07-19T02:45:15.689Z,101616.19
2017-07-19T02:47:44.029Z,101599.60
2017-07-19T02:50:13.026Z,101596.71
2017-07-19T02:52:41.377Z,101601.49
2017-07-19T02:55:12.060Z,101596.01
2017-07-19T02:57:40.916Z,101589.54
2017-07-19T03:00:09.263Z,101586.01
2017-07-19T03:02:37.618Z,101585.39
2017-07-19T03:05:06.359Z,101580.56
2017-07-19T03:07:34.694Z,101573.31
2017-07-19T03:10:03.049Z,101563.83
2017-07-19T03:12:32.278Z,101571.53
2017-07-19T03:15:00.630Z,101573.62
2017-07-19T03:17:28.974Z,101569.50
2017-07-19T03:19:57.614Z,101573.87
2017-07-19T03:22:49.924Z,101570.94
2017-07-19T03:25:18.777Z,101572.96
2017-07-19T03:27:47.135Z,101567.92
2017-07-19T03:30:16.264Z,101576.37
2017-07-19T03:32:45.218Z,101574.66
2017-07-19T03:35:13.579Z,101572.86
2017-07-19T03:37:42.710Z,101578.64
2017-07-19T03:40:12.230Z,101571.44
2017-07-19T03:42:41.331Z,101568.79
2017-07-19T03:45:09.725Z,101570.02
2017-07-19T03:47:38.620Z,101566.05
2017-07-19T03:50:06.937Z,101567.02
2017-07-19T03:52:35.283Z,101569.59
2017-07-19T03:55:04.161Z,101572.87
2017-07-19T03:57:32.499Z,101567.23
2017-07-19T04:00:00.854Z,101564.55
2017-07-19T04:02:29.493Z,101569.87
2017-07-19T04:04:57.813Z,101565.78
2017-07-19T04:07:26.184Z,101570.23
2017-07-19T04:09:54.937Z,101563.48
2017-07-19T04:12:23.281Z,101570.52
2017-07-19T04:14:51.622Z,101567.45
2017-07-19T04:17:20.413Z,101562.27
2017-07-19T04:19:48.746Z,101559.09
2017-07-19T04:22:17.846Z,101555.52
2017-07-19T04:24:47.467Z,101560.73
2017-07-19T04:27:15.815Z,101550.41
2017-07-19T04:29:44.188Z,101554.95
2017-07-19T04:32:13.131Z,101557.52
2017-07-19T04:34:41.484Z,101553.76
2017-07-19T04:37:10.581Z,101555.93
2017-07-19T04:39:40.598Z,101552.40
2017-07-19T04:42:08.950Z,101551.31
2017-07-19T04:44:38.076Z,101549.56
2017-07-19T04:47:07.488Z,101544.34
2017-07-19T04:49:35.823Z,101542.40
2017-07-19T04:52:04.176Z,101533.06
2017-07-19T04:54:32.934Z,101543.64
2017-07-19T04:57:01.268Z,101547.95
2017-07-19T04:59:29.615Z,101544.64
2017-07-19T05:01:58.713Z,101546.45
2017-07-19T05:04:27.047Z,101546.75
2017-07-19T05:06:55.366Z,101544.41
2017-07-19T05:09:24.164Z,101545.20
2017-07-19T05:11:52.512Z,101540.41
2017-07-19T05:14:20.847Z,101537.61
2017-07-19T05:16:49.671Z,101529.69
2017-07-19T05:19:18.017Z,101521.80
2017-07-19T05:21:46.367Z,101521.75
2017-07-19T05:24:15.356Z,101525.27
2017-07-19T05:26:43.712Z,101527.96
2017-07-19T05:29:12.037Z,101523.66
2017-07-19T05:31:40.966Z,101512.97
2017-07-19T05:34:09.315Z,101511.26
2017-07-19T05:36:37.686Z,101505.13
2017-07-19T05:39:06.464Z,101504.91
2017-07-19T05:41:34.839Z,101505.11
2017-07-19T05:44:03.176Z,101505.87
2017-07-19T05:46:32.061Z,101507.80
2017-07-19T05:49:00.415Z,101510.73
2017-07-19T05:51:28.782Z,101513.05
2017-07-19T05:53:57.422Z,101516.70
2017-07-19T05:56:25.761Z,101519.88
2017-07-19T05:58:54.131Z,101523.84
2017-07-19T06:01:22.962Z,101521.88
2017-07-19T06:03:51.314Z,101525.07
2017-07-19T06:06:19.687Z,101523.06
2017-07-19T06:08:48.611Z,101529.42
2017-07-19T06:11:16.963Z,101523.80
2017-07-19T06:13:46.063Z,101538.67
2017-07-19T06:16:15.503Z,101539.47
2017-07-19T06:18:43.840Z,101534.44
2017-07-19T06:21:12.965Z,101520.80
2017-07-19T06:23:41.786Z,101514.06
2017-07-19T06:26:10.140Z,101524.53
2017-07-19T06:28:38.538Z,101530.27
2017-07-19T06:31:07.597Z,101529.95
2017-07-19T06:33:35.918Z,101526.98
2017-07-19T06:36:04.246Z,101526.48
2017-07-19T06:38:33.873Z,101514.79
2017-07-19T06:41:02.200Z,101520.02
2017-07-19T06:43:30.629Z,101521.16
2017-07-19T06:45:59.332Z,101521.28
2017-07-19T06:48:27.669Z,101511.76
2017-07-19T06:50:56.007Z,101515.34
2017-07-19T06:53:25.107Z,101506.09
2017-07-19T06:55:53.458Z,101501.42
2017-07-19T06:58:21.798Z,101499.20
2017-07-19T07:00:50.626Z,101501.56
2017-07-19T07:03:18.953Z,101505.34
2017-07-19T07:05:47.300Z,101492.49
2017-07-19T07:08:16.050Z,101494.87
2017-07-19T07:10:44.390Z,101489.62
2017-07-19T07:13:12.746Z,101485.98
2017-07-19T07:15:41.466Z,101493.17
2017-07-19T07:18:09.815Z,101487.23
2017-07-19T07:20:38.145Z,101475.34
2017-07-19T07:23:07.565Z,101479.88
2017-07-19T07:25:35.916Z,101469.87
2017-07-19T07:28:04.274Z,101477.45
2017-07-19T07:30:33.027Z,101471.27
2017-07-19T07:33:01.372Z,101466.47
2017-07-19T07:35:30.471Z,101470.28
2017-07-19T07:38:00.290Z,101458.62
2017-07-19T07:40:28.633Z,101454.48
2017-07-19T07:42:56.984Z,101457.08
2017-07-19T07:45:25.946Z,101460.61
2017-07-19T07:47:54.282Z,101460.98
2017-07-19T07:50:22.638Z,101455.16
2017-07-19T07:52:51.403Z,101447.17
2017-07-19T07:55:19.772Z,101447.37
2017-07-19T07:57:48.114Z,101440.51
2017-07-19T08:00:17.052Z,101437.95
2017-07-19T08:02:45.391Z,101434.32
2017-07-19T08:05:13.739Z,101431.60
2017-07-19T08:07:42.495Z,101440.60
2017-07-19T08:10:10.848Z,101420.72
2017-07-19T08:12:39.199Z,101420.23
2017-07-19T08:15:07.839Z,101414.38
2017-07-19T08:17:36.156Z,101417.22
2017-07-19T08:20:04.492Z,101413.88
2017-07-19T08:22:33.794Z,101404.84
2017-07-19T08:25:02.154Z,101405.09
2017-07-19T08:27:31.265Z,101407.47
2017-07-19T08:29:59.901Z,101406.40
2017-07-19T08:32:28.244Z,101406.27
2017-07-19T08:34:56.599Z,101402.56
2017-07-19T08:37:25.302Z,101396.66
2017-07-19T08:39:53.629Z,101390.31
2017-07-19T08:42:21.975Z,101393.27
2017-07-19T08:44:50.960Z,101392.34
2017-07-19T08:47:19.293Z,101387.59
2017-07-19T08:49:47.634Z,101388.25
2017-07-19T08:52:16.484Z,101383.98
2017-07-19T08:54:45.598Z,101373.84
2017-07-19T08:57:13.943Z,101376.27
2017-07-19T08:59:42.808Z,101371.80
2017-07-19T09:02:11.177Z,101366.92
2017-07-19T09:04:39.532Z,101366.45
2017-07-19T09:07:08.473Z,101374.38
2017-07-19T09:09:36.805Z,101364.74
2017-07-19T09:12:05.139Z,101370.39
2017-07-19T09:14:33.956Z,101374.17
2017-07-19T09:17:02.290Z,101367.36
2017-07-19T09:19:30.636Z,101364.73
2017-07-19T09:21:59.383Z,101359.45
2017-07-19T09:24:27.714Z,101353.92
2017-07-19T09:26:56.069Z,101343.73
2017-07-19T09:29:25.060Z,101346.69
2017-07-19T09:31:53.406Z,101335.88
2017-07-19T09:34:21.747Z,101334.78
2017-07-19T09:36:50.510Z,101329.63
2017-07-19T09:39:18.853Z,101331.29
2017-07-19T09:41:47.190Z,101332.01
2017-07-19T09:44:15.967Z,101333.34
2017-07-19T09:46:44.310Z,101337.89
2017-07-19T09:49:12.662Z,101340.95
2017-07-19T09:51:41.628Z,101343.35
2017-07-19T09:54:09.976Z,101344.09
2017-07-19T09:56:38.329Z,101339.91
2017-07-19T09:59:07.025Z,101336.91
2017-07-19T10:01:35.409Z,101334.27
2017-07-19T10:04:03.778Z,101336.91
2017-07-19T10:06:32.483Z,101328.80
2017-07-19T10:09:00.830Z,101315.79
2017-07-19T10:11:29.186Z,101315.23
2017-07-19T10:13:58.499Z,101308.34
2017-07-19T10:16:26.843Z,101297.00
2017-07-19T10:18:55.190Z,101292.80
2017-07-19T10:21:23.856Z,101286.75
2017-07-19T10:23:52.204Z,101284.67
2017-07-19T10:26:20.568Z,101282.66
2017-07-19T10:28:49.225Z,101282.80
2017-07-19T10:31:17.568Z,101283.13
2017-07-19T10:33:46.244Z,101279.64
2017-07-19T10:36:15.497Z,101286.41
2017-07-19T10:38:43.852Z,101276.70
2017-07-19T10:41:12.986Z,101268.80
2017-07-19T10:43:41.971Z,101277.45
2017-07-19T10:46:10.313Z,101284.94
2017-07-19T10:48:39.424Z,101282.45
2017-07-19T10:51:09.042Z,101272.27
2017-07-19T10:53:37.424Z,101274.59
2017-07-19T10:56:05.813Z,101260.73
2017-07-19T10:58:34.530Z,101258.16
2017-07-19T11:01:02.924Z,101260.02
2017-07-19T11:03:31.260Z,101251.25
2017-07-19T11:05:59.921Z,101247.23
2017-07-19T11:08:28.246Z,101242.98
2017-07-19T11:10:56.578Z,101243.66
2017-07-19T11:13:26.231Z,101240.16
2017-07-19T11:15:54.577Z,101230.84
2017-07-19T11:18:23.703Z,101223.60
2017-07-19T11:20:52.645Z,101220.73
2017-07-19T11:23:20.965Z,101211.75
2017-07-19T11:25:49.299Z,101208.53
2017-07-19T11:28:18.129Z,101203.23
2017-07-19T11:30:46.454Z,101211.05
2017-07-19T11:33:14.808Z,101204.80
2017-07-19T11:35:43.758Z,101206.16
2017-07-19T11:38:12.106Z,101204.73
2017-07-19T11:40:40.450Z,101207.22
2017-07-19T11:43:09.826Z,101202.98
2017-07-19T11:45:38.175Z,101206.47
2017-07-19T11:48:06.511Z,101198.41
2017-07-19T11:50:35.262Z,101203.30
2017-07-19T11:53:03.605Z,101208.31
2017-07-19T11:55:31.949Z,101197.88
2017-07-19T11:58:00.724Z,101190.03
2017-07-19T12:00:29.093Z,101183.00
2017-07-19T12:02:57.537Z,101183.61
2017-07-19T12:05:26.371Z,101172.30
2017-07-19T12:07:54.718Z,101168.02
2017-07-19T12:10:23.077Z,101172.63
2017-07-19T12:12:51.895Z,101161.98
2017-07-19T12:15:20.991Z,101162.45
2017-07-19T12:17:50.102Z,101165.06
2017-07-19T12:20:19.495Z,101167.54
2017-07-19T12:22:47.888Z,101161.88
2017-07-19T12:25:16.244Z,101170.38
2017-07-19T12:27:45.366Z,101159.63
2017-07-19T12:30:13.712Z,101163.84
2017-07-19T12:32:42.082Z,101166.27
2017-07-19T12:35:10.814Z,101156.57
2017-07-19T12:37:39.608Z,101135.37
2017-07-19T12:40:07.962Z,101122.95
2017-07-19T12:42:36.676Z,101138.27
2017-07-19T12:45:05.023Z,101138.97
2017-07-19T12:47:34.165Z,101118.47
2017-07-19T12:50:03.038Z,101116.30
2017-07-19T12:52:31.407Z,101118.37
2017-07-19T12:54:59.739Z,101121.27
2017-07-19T12:57:28.441Z,101120.85
2017-07-19T12:59:56.792Z,101131.02
2017-07-19T13:02:25.114Z,101132.59
2017-07-19T13:04:53.739Z,101140.97
2017-07-19T13:07:22.088Z,101139.48
2017-07-19T13:09:50.432Z,101127.60
2017-07-19T13:12:19.666Z,101115.55
2017-07-19T13:14:48.020Z,101124.50
2017-07-19T13:17:16.384Z,101123.09
2017-07-19T13:19:45.124Z,101121.69
2017-07-19T13:22:13.465Z,101112.72
2017-07-19T13:24:41.807Z,101108.40
2017-07-19T13:27:10.423Z,101104.24
2017-07-19T13:29:38.786Z,101113.56
2017-07-19T13:32:07.105Z,101103.77
2017-07-19T13:34:35.899Z,101093.38
2017-07-19T13:37:04.248Z,101086.56
2017-07-19T13:39:32.620Z,101077.86
2017-07-19T13:42:01.466Z,101074.67
2017-07-19T13:44:29.818Z,101080.46
2017-07-19T13:46:58.919Z,101085.45
2017-07-19T13:49:28.535Z,101077.28
2017-07-19T13:51:56.904Z,101075.05
2017-07-19T13:54:26.032Z,101072.86
2017-07-19T13:56:55.082Z,101067.16
2017-07-19T13:59:23.402Z,101063.95
2017-07-19T14:01:51.751Z,101048.75
2017-07-19T14:04:20.683Z,101040.25
2017-07-19T14:06:49.028Z,101059.66
2017-07-19T14:09:18.151Z,101050.58
2017-07-19T14:11:46.768Z,101040.08
2017-07-19T14:14:15.125Z,101032.00
2017-07-19T14:16:43.492Z,101029.28
2017-07-19T14:19:12.279Z,101030.14
2017-07-19T14:21:40.645Z,101015.45
2017-07-19T14:24:08.990Z,101011.55
2017-07-19T14:26:37.603Z,101010.87
2017-07-19T14:29:05.948Z,101006.11
2017-07-19T14:31:34.300Z,101004.04
2017-07-19T14:34:02.955Z,100992.64
2017-07-19T14:36:31.295Z,100980.71
2017-07-19T14:38:59.652Z,100977.98
2017-07-19T14:41:29.316Z,100976.70
2017-07-19T14:43:57.648Z,100968.47
2017-07-19T14:46:25.987Z,100968.52
2017-07-19T14:48:54.968Z,100964.41
2017-07-19T14:51:23.299Z,100962.86
2017-07-19T14:53:51.666Z,100954.81
2017-07-19T14:56:20.397Z,100951.66
2017-07-19T14:58:48.751Z,100943.45
2017-07-19T15:01:17.111Z,100941.99
2017-07-19T15:03:45.853Z,100941.82
2017-07-19T15:06:14.189Z,100938.39
2017-07-19T15:08:42.526Z,100933.80
2017-07-19T15:11:11.308Z,100929.75
2017-07-19T15:13:39.655Z,100925.37
2017-07-19T15:16:07.980Z,100924.89
2017-07-19T15:18:36.735Z,100912.13
2017-07-19T15:21:05.081Z,100911.90
2017-07-19T15:23:33.438Z,100907.97
2017-07-19T15:26:02.407Z,100901.39
2017-07-19T15:28:30.745Z,100901.70
2017-07-19T15:30:59.078Z,100907.16
2017-07-19T15:33:27.688Z,100895.50
2017-07-19T15:35:56.035Z,100903.09
2017-07-19T15:38:24.374Z,100908.51
2017-07-19T15:40:53.302Z,100909.16
2017-07-19T15:43:21.649Z,100919.98
2017-07-19T15:45:49.990Z,100921.30
2017-07-19T15:48:19.149Z,100926.95
2017-07-19T15:50:47.517Z,100919.27
2017-07-19T15:53:16.650Z,100908.40
2017-07-19T15:55:45.410Z,100905.25
2017-07-19T15:58:13.753Z,100905.87
2017-07-19T16:00:42.099Z,100906.34
2017-07-19T16:03:10.840Z,100899.53
2017-07-19T16:05:39.201Z,100902.55
2017-07-19T16:08:07.562Z,100899.36
2017-07-19T16:10:36.499Z,100907.59
2017-07-19T16:13:04.854Z,100894.20
2017-07-19T16:15:33.195Z,100886.48
2017-07-19T16:18:01.811Z,100890.69
2017-07-19T16:20:30.153Z,100888.44
2017-07-19T16:22:58.499Z,100877.13
2017-07-19T16:25:27.398Z,100868.87
2017-07-19T16:27:55.743Z,100867.95
2017-07-19T16:30:24.094Z,100865.58
2017-07-19T16:32:52.956Z,100863.94
2017-07-19T16:35:21.306Z,100864.21
2017-07-19T16:37:49.641Z,100854.47
2017-07-19T16:40:18.247Z,100851.67
2017-07-19T16:42:46.583Z,100850.31
2017-07-19T16:45:14.931Z,100856.14
2017-07-19T16:47:43.554Z,100856.44
2017-07-19T16:50:11.920Z,100861.94
2017-07-19T16:52:40.256Z,100865.23
2017-07-19T16:55:09.121Z,100867.59
2017-07-19T16:57:37.458Z,100869.22
2017-07-19T17:00:05.812Z,100869.34
2017-07-19T17:02:35.231Z,100863.77
2017-07-19T17:05:03.590Z,100854.95
2017-07-19T17:07:32.707Z,100844.05
2017-07-19T17:10:01.512Z,100854.52
2017-07-19T17:12:29.874Z,100859.03
2017-07-19T17:14:58.248Z,100860.05
2017-07-19T17:17:27.374Z,100855.88
2017-07-19T17:19:55.728Z,100846.95
2017-07-19T17:22:24.061Z,100846.05
2017-07-19T17:24:52.777Z,100850.28
2017-07-19T17:27:21.142Z,100847.26
2017-07-19T17:29:49.557Z,100844.12
2017-07-19T17:32:18.232Z,100833.68
2017-07-19T17:34:46.578Z,100831.05
2017-07-19T17:37:14.914Z,100822.37
2017-07-19T17:39:44.082Z,100818.47
2017-07-19T17:42:12.428Z,100821.39
2017-07-19T17:44:40.768Z,100817.27
2017-07-19T17:47:09.417Z,100817.24
2017-07-19T17:49:38.545Z,100815.97
2017-07-19T17:52:06.949Z,100811.02
2017-07-19T17:54:35.799Z,100810.23
2017-07-19T17:57:04.156Z,100819.72
2017-07-19T17:59:33.269Z,100815.13
2017-07-19T18:02:02.475Z,100804.70
2017-07-19T18:04:30.824Z,100800.30
2017-07-19T18:06:59.166Z,100804.49
2017-07-19T18:09:27.940Z,100799.34
2017-07-19T18:11:56.316Z,100796.52
2017-07-19T18:14:24.671Z,100788.59
2017-07-19T18:16:53.579Z,100794.59
2017-07-19T18:19:22.004Z,100797.55
2017-07-19T18:21:50.357Z,100786.69
2017-07-19T18:24:19.653Z,100790.72
2017-07-19T18:26:48.011Z,100778.59
2017-07-19T18:29:16.345Z,100780.14
2017-07-19T18:31:44.996Z,100782.09
2017-07-19T18:34:13.382Z,100770.95
2017-07-19T18:36:41.714Z,100770.25
2017-07-19T18:39:11.422Z,100755.06
2017-07-19T18:41:39.781Z,100751.56
2017-07-19T18:44:08.148Z,100747.73
2017-07-19T18:46:36.869Z,100752.88
2017-07-19T18:49:05.254Z,100751.18
2017-07-19T18:51:33.612Z,100747.73
2017-07-19T18:54:02.463Z,100745.77
2017-07-19T18:56:30.799Z,100737.95
2017-07-19T18:58:59.909Z,100734.77
2017-07-19T19:01:28.528Z,100728.63
2017-07-19T19:03:56.885Z,100725.56
2017-07-19T19:06:25.250Z,100733.38
2017-07-19T19:08:54.327Z,100734.51
2017-07-19T19:11:22.684Z,100739.91
2017-07-19T19:13:51.038Z,100738.92
2017-07-19T19:16:19.748Z,100720.14
2017-07-19T19:18:48.116Z,100718.61
2017-07-19T19:21:16.466Z,100711.52
2017-07-19T19:23:45.111Z,100709.14
2017-07-19T19:26:13.465Z,100702.05
2017-07-19T19:28:41.818Z,100696.34
2017-07-19T19:31:10.598Z,100690.64
2017-07-19T19:33:38.952Z,100695.31
2017-07-19T19:36:07.314Z,100699.58
2017-07-19T19:38:36.140Z,100716.58
2017-07-19T19:41:04.499Z,100788.48
2017-07-19T19:43:33.616Z,100863.39
2017-07-19T19:46:02.402Z,100875.55
2017-07-19T19:48:30.756Z,100877.87
2017-07-19T19:50:59.284Z,100905.36
2017-07-19T19:53:28.467Z,100898.45
2017-07-19T19:55:56.815Z,100938.28
2017-07-19T19:58:25.176Z,100949.22
2017-07-19T20:00:53.919Z,100958.45
2017-07-19T20:03:22.285Z,100959.78
2017-07-19T20:05:50.652Z,100965.50
2017-07-19T20:08:19.345Z,100971.83
2017-07-19T20:10:47.691Z,100977.50
2017-07-19T20:13:16.053Z,100978.39
2017-07-19T20:15:44.990Z,100984.22
2017-07-19T20:18:13.343Z,100986.91
2017-07-19T20:20:41.703Z,100995.17
2017-07-19T20:23:10.683Z,101001.05
2017-07-19T20:25:39.048Z,100996.53
2017-07-19T20:28:07.407Z,101000.53
2017-07-19T20:30:36.067Z,101011.73
2017-07-19T20:33:04.450Z,101009.33
2017-07-19T20:35:33.580Z,101025.48
2017-07-19T20:38:02.729Z,101031.82
2017-07-19T20:40:31.916Z,101028.02
2017-07-19T20:43:00.291Z,101019.59
2017-07-19T20:45:29.032Z,101016.40
2017-07-19T20:47:57.423Z,101014.25
2017-07-19T20:50:25.763Z,101011.30
2017-07-19T20:52:54.676Z,101019.02
2017-07-19T20:55:22.998Z,101019.17
2017-07-19T20:57:51.351Z,101023.22
2017-07-19T21:00:20.220Z,101007.03
2017-07-19T21:02:48.597Z,101006.48
2017-07-19T21:05:16.963Z,101002.55
2017-07-19T21:07:45.656Z,101007.77
2017-07-19T21:10:14.797Z,101011.95
2017-07-19T21:12:43.139Z,101010.31
2017-07-19T21:15:11.754Z,101003.48
2017-07-19T21:17:40.101Z,101004.98
2017-07-19T21:20:08.462Z,101002.18
2017-07-19T21:22:37.450Z,100999.97
2017-07-19T21:25:05.791Z,101011.55
2017-07-19T21:27:34.133Z,101007.33
2017-07-19T21:30:03.764Z,100999.59
2017-07-19T21:32:32.154Z,101005.89
2017-07-19T21:35:00.487Z,101004.75
2017-07-19T21:37:29.261Z,101010.28
2017-07-19T21:39:57.614Z,101002.27
2017-07-19T21:42:25.989Z,101005.03
2017-07-19T21:44:55.056Z,100997.68
2017-07-19T21:47:23.413Z,101000.36
2017-07-19T21:49:52.511Z,101000.13
2017-07-19T21:52:22.138Z,100989.73
2017-07-19T21:54:50.482Z,100985.91
2017-07-19T21:57:18.820Z,100974.66
2017-07-19T21:59:47.609Z,100967.30
2017-07-19T22:02:15.967Z,100959.78
2017-07-19T22:04:44.299Z,100962.47
2017-07-19T22:07:13.217Z,100958.95
2017-07-19T22:09:41.555Z,100958.53
2017-07-19T22:12:09.908Z,100950.01
2017-07-19T22:14:38.689Z,100942.77
2017-07-19T22:17:07.039Z,100943.67
2017-07-19T22:19:36.153Z,100950.77
2017-07-19T22:22:04.800Z,100943.05
2017-07-19T22:24:33.162Z,100937.88
2017-07-19T22:27:01.523Z,100933.77
2017-07-19T22:29:30.600Z,100933.72
2017-07-19T22:31:58.932Z,100927.07
2017-07-19T22:34:27.287Z,100921.98
2017-07-19T22:36:56.057Z,100915.94
2017-07-19T22:39:24.402Z,100908.53
2017-07-19T22:41:53.544Z,100904.84
2017-07-19T22:44:22.305Z,100901.23
2017-07-19T22:46:50.646Z,100886.52
2017-07-19T22:49:18.999Z,100872.20
2017-07-19T22:51:47.822Z,100870.77
2017-07-19T22:54:16.162Z,100869.98
2017-07-19T22:56:44.502Z,100871.38
2017-07-19T22:59:13.392Z,100869.23
2017-07-19T23:01:41.756Z,100876.22
2017-07-19T23:04:10.874Z,100861.78
2017-07-19T23:06:39.530Z,100864.05
2017-07-19T23:09:07.871Z,100857.66
2017-07-19T23:11:36.215Z,100852.57
2017-07-19T23:14:05.295Z,100854.67
2017-07-19T23:16:33.650Z,100847.78
2017-07-19T23:19:02.012Z,100845.34
2017-07-19T23:21:30.690Z,100837.58
2017-07-19T23:23:59.040Z,100833.69
2017-07-19T23:26:27.400Z,100835.71
2017-07-19T23:28:56.821Z,100821.36
2017-07-19T23:31:25.161Z,100810.41
2017-07-19T23:33:53.496Z,100799.80
2017-07-19T23:36:22.465Z,100785.59
2017-07-19T23:38:50.810Z,100778.09
2017-07-19T23:41:19.168Z,100777.15
2017-07-19T23:43:48.050Z,100791.72
2017-07-19T23:46:16.414Z,100786.92
2017-07-19T23:48:44.771Z,100776.56
2017-07-19T23:51:13.777Z,100772.92
2017-07-19T23:53:42.119Z,100763.45
2017-07-19T23:56:10.468Z,100752.92
2017-07-19T23:58:39.326Z,100757.74
